createdAt,value
2018-10-06T00:01:27.734Z,10.10
2018-10-06T00:03:58.109Z,10.10
2018-10-06T00:06:28.444Z,10.00
2018-10-06T00:08:58.989Z,10.00
2018-10-06T00:11:29.322Z,10.00
2018-10-06T00:13:59.859Z,10.00
2018-10-06T00:16:30.370Z,10.00
2018-10-06T00:19:00.542Z,10.00
2018-10-06T00:21:30.927Z,10.00
2018-10-06T00:24:01.589Z,9.90
2018-10-06T00:26:31.778Z,9.90
2018-10-06T00:29:02.789Z,9.90
2018-10-06T00:31:33.219Z,10.00
2018-10-06T00:34:04.054Z,10.00
2018-10-06T00:36:34.400Z,10.10
2018-10-06T00:39:05.484Z,10.10
2018-10-06T00:41:36.357Z,10.10
2018-10-06T00:44:06.902Z,10.10
2018-10-06T00:46:37.306Z,10.00
2018-10-06T00:49:07.980Z,10.00
2018-10-06T00:51:38.316Z,10.00
2018-10-06T00:54:08.863Z,9.90
2018-10-06T00:56:39.226Z,10.00
2018-10-06T00:59:09.441Z,9.90
2018-10-06T01:01:39.762Z,9.90
2018-10-06T01:04:10.128Z,9.90
2018-10-06T01:06:40.270Z,10.00
2018-10-06T01:09:11.215Z,10.10
2018-10-06T01:11:41.624Z,10.10
2018-10-06T01:14:11.550Z,10.20
2018-10-06T01:16:41.745Z,10.20
2018-10-06T01:19:12.207Z,10.20
2018-10-06T01:21:42.592Z,10.10
2018-10-06T01:24:12.967Z,10.10
2018-10-06T01:26:44.596Z,10.10
2018-10-06T01:29:14.813Z,10.10
2018-10-06T01:31:45.027Z,10.10
2018-10-06T01:34:15.177Z,10.10
2018-10-06T01:36:45.661Z,10.00
2018-10-06T01:39:16.409Z,9.90
2018-10-06T01:41:46.448Z,10.00
2018-10-06T01:44:16.798Z,9.90
2018-10-06T01:46:47.297Z,9.90
2018-10-06T01:49:17.835Z,9.90
2018-10-06T01:51:48.029Z,9.80
2018-10-06T01:54:19.799Z,9.80
2018-10-06T01:56:50.753Z,9.70
2018-10-06T01:59:21.067Z,9.70
2018-10-06T02:01:52.029Z,9.70
2018-10-06T02:04:24.321Z,9.70
2018-10-06T02:06:55.751Z,9.70
2018-10-06T02:09:26.668Z,9.70
2018-10-06T02:11:56.940Z,9.60
2018-10-06T02:14:27.514Z,9.60
2018-10-06T02:16:57.680Z,9.60
2018-10-06T02:19:28.212Z,9.60
2018-10-06T02:21:58.610Z,9.60
2018-10-06T02:24:30.045Z,9.60
2018-10-06T02:27:00.314Z,9.50
2018-10-06T02:29:30.483Z,9.50
2018-10-06T02:32:00.632Z,9.50
2018-10-06T02:34:30.798Z,9.40
2018-10-06T02:37:01.226Z,9.40
2018-10-06T02:39:31.718Z,9.50
2018-10-06T02:42:02.219Z,9.50
2018-10-06T02:44:32.686Z,9.60
2018-10-06T02:47:03.192Z,9.60
2018-10-06T02:49:33.098Z,9.60
2018-10-06T02:52:04.600Z,9.70
2018-10-06T02:54:35.383Z,9.70
2018-10-06T02:57:05.350Z,9.70
2018-10-06T02:59:35.572Z,9.70
2018-10-06T03:02:05.985Z,9.70
2018-10-06T03:04:36.284Z,9.80
2018-10-06T03:07:06.568Z,9.90
2018-10-06T03:09:36.698Z,9.90
2018-10-06T03:12:06.880Z,9.90
2018-10-06T03:14:36.983Z,9.90
2018-10-06T03:17:07.763Z,9.90
2018-10-06T03:19:38.610Z,9.90
2018-10-06T03:22:08.994Z,9.80
2018-10-06T03:24:39.276Z,9.80
2018-10-06T03:27:09.450Z,9.70
2018-10-06T03:29:39.749Z,9.60
2018-10-06T03:32:10.031Z,9.60
2018-10-06T03:34:40.811Z,9.50
2018-10-06T03:37:11.391Z,9.50
2018-10-06T03:39:42.045Z,9.40
2018-10-06T03:42:13.149Z,9.40
2018-10-06T03:44:44.259Z,9.40
2018-10-06T03:47:14.655Z,9.40
2018-10-06T03:49:44.865Z,9.30
2018-10-06T03:52:14.975Z,9.30
2018-10-06T03:54:45.219Z,9.30
2018-10-06T03:57:16.154Z,9.30
2018-10-06T03:59:46.107Z,9.30
2018-10-06T04:02:16.360Z,9.30
2018-10-06T04:04:47.055Z,9.40
2018-10-06T04:07:18.110Z,9.30
2018-10-06T04:09:48.540Z,9.20
2018-10-06T04:12:18.839Z,9.20
2018-10-06T04:14:49.509Z,9.20
2018-10-06T04:17:19.883Z,9.20
2018-10-06T04:19:50.175Z,9.30
2018-10-06T04:22:21.255Z,9.30
2018-10-06T04:24:52.193Z,9.30
2018-10-06T04:27:22.674Z,9.30
2018-10-06T04:29:53.277Z,9.30
2018-10-06T04:32:23.583Z,9.30
2018-10-06T04:34:53.735Z,9.20
2018-10-06T04:37:23.994Z,9.20
2018-10-06T04:39:54.149Z,9.10
2018-10-06T04:42:24.246Z,9.10
2018-10-06T04:44:54.478Z,9.10
2018-10-06T04:47:24.830Z,9.10
2018-10-06T04:49:55.112Z,9.10
2018-10-06T04:52:26.020Z,9.10
2018-10-06T04:54:56.104Z,9.10
2018-10-06T04:57:26.295Z,9.10
2018-10-06T04:59:57.090Z,9.10
2018-10-06T05:02:32.482Z,9.10
2018-10-06T05:05:03.439Z,9.10
2018-10-06T05:07:33.577Z,9.10
2018-10-06T05:10:04.178Z,9.00
2018-10-06T05:12:34.245Z,9.00
2018-10-06T05:15:04.598Z,9.00
2018-10-06T05:17:45.048Z,9.00
2018-10-06T05:20:15.856Z,9.00
2018-10-06T05:22:46.976Z,9.00
2018-10-06T05:25:17.456Z,8.90
2018-10-06T05:27:47.850Z,9.00
2018-10-06T05:30:18.445Z,9.10
2018-10-06T05:32:48.976Z,9.10
2018-10-06T05:35:19.848Z,9.10
2018-10-06T05:37:49.962Z,9.00
2018-10-06T05:40:21.034Z,8.90
2018-10-06T05:42:51.165Z,8.90
2018-10-06T05:45:21.276Z,8.80
2018-10-06T05:47:53.501Z,8.80
2018-10-06T05:50:24.748Z,8.80
2018-10-06T05:52:55.817Z,8.80
2018-10-06T05:55:26.987Z,9.00
2018-10-06T05:58:00.234Z,9.30
2018-10-06T06:00:31.124Z,9.40
2018-10-06T06:03:01.127Z,9.50
2018-10-06T06:05:31.567Z,9.40
2018-10-06T06:08:02.521Z,9.40
2018-10-06T06:10:33.653Z,9.30
2018-10-06T06:13:07.855Z,9.30
2018-10-06T06:15:42.436Z,9.30
2018-10-06T06:18:12.771Z,9.30
2018-10-06T06:20:43.419Z,9.40
2018-10-06T06:23:14.049Z,9.40
2018-10-06T06:25:45.258Z,9.50
2018-10-06T06:28:15.737Z,9.60
2018-10-06T06:30:46.812Z,9.80
2018-10-06T06:33:17.954Z,10.20
2018-10-06T06:35:49.045Z,10.40
2018-10-06T06:38:19.648Z,10.50
2018-10-06T06:40:50.049Z,10.70
2018-10-06T06:43:20.149Z,10.80
2018-10-06T06:45:51.638Z,10.90
2018-10-06T06:48:22.724Z,10.90
2018-10-06T06:50:53.849Z,11.10
2018-10-06T06:53:24.036Z,11.20
2018-10-06T06:55:55.256Z,11.30
2018-10-06T06:58:26.882Z,11.40
2018-10-06T07:00:57.224Z,11.50
2018-10-06T07:03:27.570Z,11.50
2018-10-06T07:05:57.892Z,11.70
2018-10-06T07:08:28.294Z,11.80
2018-10-06T07:10:58.913Z,12.00
2018-10-06T07:13:29.360Z,12.20
2018-10-06T07:15:59.942Z,12.30
2018-10-06T07:18:30.091Z,12.40
2018-10-06T07:21:00.736Z,12.40
2018-10-06T07:23:31.064Z,12.60
2018-10-06T07:26:01.350Z,12.70
2018-10-06T07:28:32.310Z,12.80
2018-10-06T07:31:03.107Z,12.90
2018-10-06T07:33:33.796Z,13.00
2018-10-06T07:36:04.114Z,13.10
2018-10-06T07:38:35.213Z,13.10
2018-10-06T07:41:05.752Z,13.30
2018-10-06T07:43:36.019Z,13.40
2018-10-06T07:46:06.798Z,13.50
2018-10-06T07:48:37.300Z,13.60
2018-10-06T07:51:07.553Z,13.80
2018-10-06T07:53:38.132Z,13.90
2018-10-06T07:56:08.628Z,14.10
2018-10-06T07:58:39.116Z,14.20
2018-10-06T08:01:09.726Z,14.20
2018-10-06T08:03:40.196Z,14.40
2018-10-06T08:06:10.849Z,14.50
2018-10-06T08:08:41.143Z,14.50
2018-10-06T08:11:12.184Z,14.60
2018-10-06T08:13:42.910Z,14.70
2018-10-06T08:16:14.461Z,14.80
2018-10-06T08:18:45.439Z,14.90
2018-10-06T08:21:17.173Z,14.90
2018-10-06T08:23:47.551Z,15.10
2018-10-06T08:26:18.621Z,15.30
2018-10-06T08:28:48.890Z,15.40
2018-10-06T08:31:19.594Z,15.40
2018-10-06T08:33:50.099Z,15.60
2018-10-06T08:36:20.379Z,15.60
2018-10-06T08:38:51.198Z,15.80
2018-10-06T08:41:21.656Z,15.90
2018-10-06T08:43:52.123Z,16.00
2018-10-06T08:46:22.516Z,16.20
2018-10-06T08:48:52.915Z,16.30
2018-10-06T08:51:23.365Z,16.40
2018-10-06T08:53:53.950Z,16.60
2018-10-06T08:56:25.195Z,16.70
2018-10-06T08:58:55.535Z,16.80
2018-10-06T09:01:25.921Z,17.00
2018-10-06T09:03:57.095Z,17.00
2018-10-06T09:06:27.983Z,17.00
2018-10-06T09:08:58.733Z,17.10
2018-10-06T09:11:30.037Z,17.30
2018-10-06T09:14:00.649Z,17.40
2018-10-06T09:16:31.487Z,17.60
2018-10-06T09:19:02.268Z,17.60
2018-10-06T09:21:34.084Z,17.70
2018-10-06T09:24:04.424Z,17.80
2018-10-06T09:26:34.686Z,17.90
2018-10-06T09:29:04.987Z,18.00
2018-10-06T09:31:36.194Z,18.20
2018-10-06T09:34:06.709Z,18.30
2018-10-06T09:36:37.191Z,18.50
2018-10-06T09:39:09.060Z,18.60
2018-10-06T09:41:39.679Z,18.60
2018-10-06T09:44:10.066Z,18.60
2018-10-06T09:46:40.817Z,18.80
2018-10-06T09:49:11.623Z,18.80
2018-10-06T09:51:42.006Z,19.00
2018-10-06T09:54:12.729Z,19.10
2018-10-06T09:56:43.705Z,19.20
2018-10-06T09:59:14.420Z,19.20
2018-10-06T10:01:50.036Z,19.20
2018-10-06T10:04:20.776Z,19.40
2018-10-06T10:06:52.777Z,19.70
2018-10-06T10:09:23.327Z,19.70
2018-10-06T10:11:54.087Z,19.80
2018-10-06T10:14:24.479Z,19.90
2018-10-06T10:16:54.708Z,20.00
2018-10-06T10:19:24.725Z,20.10
2018-10-06T10:21:54.906Z,20.10
2018-10-06T10:24:25.219Z,20.10
2018-10-06T10:26:55.312Z,20.20
2018-10-06T10:29:25.886Z,20.30
2018-10-06T10:31:56.836Z,20.40
2018-10-06T10:34:27.382Z,20.60
2018-10-06T10:36:58.359Z,20.50
2018-10-06T10:39:28.837Z,20.70
2018-10-06T10:41:59.320Z,20.90
2018-10-06T10:44:29.713Z,21.00
2018-10-06T10:47:00.292Z,20.90
2018-10-06T10:49:31.364Z,21.00
2018-10-06T10:52:02.759Z,21.10
2018-10-06T10:54:33.708Z,20.90
2018-10-06T10:57:04.308Z,21.20
2018-10-06T10:59:34.741Z,21.20
2018-10-06T11:02:05.049Z,20.90
2018-10-06T11:04:36.137Z,21.10
2018-10-06T11:07:06.383Z,21.00
2018-10-06T11:09:36.859Z,20.90
2018-10-06T11:12:07.819Z,21.40
2018-10-06T11:14:38.058Z,21.40
2018-10-06T11:17:08.630Z,21.30
2018-10-06T11:19:39.115Z,21.70
2018-10-06T11:22:09.730Z,21.50
2018-10-06T11:24:40.503Z,21.70
2018-10-06T11:27:10.845Z,21.80
2018-10-06T11:29:41.523Z,21.90
2018-10-06T11:32:12.564Z,21.80
2018-10-06T11:34:43.731Z,21.70
2018-10-06T11:37:14.244Z,21.50
2018-10-06T11:39:44.606Z,21.80
2018-10-06T11:42:15.088Z,21.70
2018-10-06T11:44:45.490Z,21.80
2018-10-06T11:47:16.188Z,21.70
2018-10-06T11:49:46.496Z,22.00
2018-10-06T11:52:16.604Z,22.20
2018-10-06T11:54:46.662Z,22.50
2018-10-06T11:57:16.876Z,22.70
2018-10-06T11:59:47.544Z,22.70
2018-10-06T12:02:17.994Z,22.50
2018-10-06T12:04:48.713Z,22.30
2018-10-06T12:07:19.762Z,22.30
2018-10-06T12:09:50.222Z,22.90
2018-10-06T12:12:20.837Z,22.80
2018-10-06T12:14:51.402Z,23.00
2018-10-06T12:17:21.534Z,22.90
2018-10-06T12:19:52.259Z,23.30
2018-10-06T12:22:22.944Z,23.70
2018-10-06T12:24:53.290Z,23.60
2018-10-06T12:27:23.800Z,23.10
2018-10-06T12:29:55.009Z,22.90
2018-10-06T12:32:25.336Z,22.90
2018-10-06T12:34:55.684Z,23.00
2018-10-06T12:37:25.813Z,23.40
2018-10-06T12:39:56.289Z,23.30
2018-10-06T12:42:26.962Z,23.60
2018-10-06T12:44:57.306Z,23.30
2018-10-06T12:47:27.423Z,23.50
2018-10-06T12:49:58.317Z,23.60
2018-10-06T12:52:28.897Z,23.60
2018-10-06T12:54:59.414Z,24.00
2018-10-06T12:57:30.104Z,24.00
2018-10-06T13:00:00.622Z,23.30
2018-10-06T13:02:31.823Z,22.60
2018-10-06T13:05:02.148Z,22.80
2018-10-06T13:07:32.512Z,22.60
2018-10-06T13:10:03.450Z,22.10
2018-10-06T13:12:33.804Z,22.00
2018-10-06T13:15:04.608Z,21.90
2018-10-06T13:17:36.097Z,21.80
2018-10-06T13:20:06.797Z,21.70
2018-10-06T13:22:37.285Z,21.70
2018-10-06T13:25:07.763Z,21.70
2018-10-06T13:27:38.013Z,21.60
2018-10-06T13:30:08.406Z,21.70
2018-10-06T13:32:38.747Z,21.70
2018-10-06T13:35:09.347Z,21.60
2018-10-06T13:37:39.755Z,21.50
2018-10-06T13:40:11.155Z,21.00
2018-10-06T13:42:41.752Z,20.70
2018-10-06T13:45:12.752Z,20.70
2018-10-06T13:47:43.383Z,20.80
2018-10-06T13:50:14.146Z,20.80
2018-10-06T13:52:44.379Z,20.80
2018-10-06T13:55:18.660Z,20.70
2018-10-06T13:57:49.291Z,20.60
2018-10-06T14:00:20.125Z,20.50
2018-10-06T14:02:51.087Z,20.60
2018-10-06T14:05:21.760Z,20.70
2018-10-06T14:07:52.543Z,20.60
2018-10-06T14:10:22.956Z,20.70
2018-10-06T14:12:53.175Z,20.80
2018-10-06T14:15:23.722Z,20.70
2018-10-06T14:17:54.417Z,20.50
2018-10-06T14:20:25.548Z,20.40
2018-10-06T14:22:57.361Z,20.40
2018-10-06T14:25:27.914Z,20.30
2018-10-06T14:27:58.984Z,20.30
2018-10-06T14:30:29.159Z,20.30
2018-10-06T14:32:59.470Z,20.20
2018-10-06T14:35:30.005Z,20.20
2018-10-06T14:38:00.795Z,20.10
2018-10-06T14:40:32.010Z,20.10
2018-10-06T14:43:02.344Z,19.90
2018-10-06T14:45:32.895Z,19.80
2018-10-06T14:48:03.422Z,19.70
2018-10-06T14:50:34.642Z,19.70
2018-10-06T14:53:04.835Z,19.60
2018-10-06T14:55:35.209Z,19.50
2018-10-06T14:58:06.114Z,19.40
2018-10-06T15:00:36.562Z,19.20
2018-10-06T15:03:07.052Z,19.10
2018-10-06T15:05:38.028Z,19.00
2018-10-06T15:08:08.165Z,18.90
2018-10-06T15:10:38.728Z,18.70
2018-10-06T15:13:10.146Z,18.50
2018-10-06T15:15:40.458Z,18.40
2018-10-06T15:18:10.650Z,18.30
2018-10-06T15:20:41.887Z,18.20
2018-10-06T15:23:12.085Z,18.10
2018-10-06T15:25:42.499Z,17.90
2018-10-06T15:28:13.326Z,17.90
2018-10-06T15:30:44.978Z,17.90
2018-10-06T15:33:15.414Z,17.90
2018-10-06T15:35:46.242Z,17.70
2018-10-06T15:38:17.019Z,17.50
2018-10-06T15:40:47.408Z,17.30
2018-10-06T15:43:18.628Z,17.20
2018-10-06T15:45:48.845Z,17.10
2018-10-06T15:48:19.099Z,17.00
2018-10-06T15:50:49.807Z,17.00
2018-10-06T15:53:20.343Z,17.00
2018-10-06T15:55:50.803Z,16.90
2018-10-06T15:58:21.943Z,16.90
2018-10-06T16:00:52.958Z,16.80
2018-10-06T16:03:23.720Z,16.70
2018-10-06T16:05:54.592Z,16.80
2018-10-06T16:08:24.961Z,16.70
2018-10-06T16:10:55.565Z,16.60
2018-10-06T16:13:26.965Z,16.60
2018-10-06T16:15:57.716Z,16.60
2018-10-06T16:18:28.295Z,16.50
2018-10-06T16:20:58.687Z,16.50
2018-10-06T16:23:29.292Z,16.50
2018-10-06T16:25:59.917Z,16.40
2018-10-06T16:28:30.408Z,16.40
2018-10-06T16:31:00.833Z,16.40
2018-10-06T16:33:31.256Z,16.30
2018-10-06T16:36:01.398Z,16.30
2018-10-06T16:38:31.509Z,16.20
2018-10-06T16:41:02.106Z,16.20
2018-10-06T16:43:33.346Z,16.10
2018-10-06T16:46:04.958Z,16.10
2018-10-06T16:48:35.146Z,16.00
2018-10-06T16:51:06.443Z,16.00
2018-10-06T16:53:37.054Z,16.00
2018-10-06T16:56:07.292Z,15.90
2018-10-06T16:58:37.844Z,15.90
2018-10-06T17:01:08.260Z,15.90
2018-10-06T17:03:38.578Z,15.90
2018-10-06T17:06:12.203Z,15.80
2018-10-06T17:08:42.703Z,15.80
2018-10-06T17:11:13.029Z,15.80
2018-10-06T17:13:43.261Z,15.70
2018-10-06T17:16:14.261Z,15.60
2018-10-06T17:18:44.876Z,15.60
2018-10-06T17:21:15.325Z,15.60
2018-10-06T17:23:46.299Z,15.50
2018-10-06T17:26:16.971Z,15.50
2018-10-06T17:28:48.124Z,15.50
2018-10-06T17:31:18.420Z,15.50
2018-10-06T17:33:49.799Z,15.50
2018-10-06T17:36:20.129Z,15.50
2018-10-06T17:38:51.578Z,15.50
2018-10-06T17:41:21.702Z,15.40
2018-10-06T17:43:53.144Z,15.40
2018-10-06T17:46:23.213Z,15.40
2018-10-06T17:48:53.800Z,15.40
2018-10-06T17:51:24.560Z,15.30
2018-10-06T17:53:55.536Z,15.30
2018-10-06T17:56:26.088Z,15.30
2018-10-06T17:58:57.355Z,15.30
2018-10-06T18:01:27.264Z,15.30
2018-10-06T18:03:57.162Z,15.20
2018-10-06T18:06:27.410Z,15.30
2018-10-06T18:08:57.733Z,15.30
2018-10-06T18:11:28.657Z,15.30
2018-10-06T18:13:58.874Z,15.30
2018-10-06T18:16:29.433Z,15.30
2018-10-06T18:18:59.511Z,15.30
2018-10-06T18:21:31.085Z,15.30
2018-10-06T18:24:01.302Z,15.30
2018-10-06T18:26:31.356Z,15.30
2018-10-06T18:29:01.905Z,15.30
2018-10-06T18:31:32.749Z,15.30
2018-10-06T18:34:03.704Z,15.30
2018-10-06T18:36:34.618Z,15.30
2018-10-06T18:39:05.641Z,15.30
2018-10-06T18:41:36.280Z,15.20
2018-10-06T18:44:06.478Z,15.20
2018-10-06T18:46:37.001Z,15.20
2018-10-06T18:49:07.230Z,15.20
2018-10-06T18:51:38.799Z,15.20
2018-10-06T18:54:09.245Z,15.20
2018-10-06T18:56:39.292Z,15.20
2018-10-06T18:59:09.342Z,15.20
2018-10-06T19:01:40.046Z,15.20
2018-10-06T19:04:11.367Z,15.20
2018-10-06T19:06:42.770Z,15.10
2018-10-06T19:09:13.070Z,15.10
2018-10-06T19:11:43.223Z,15.10
2018-10-06T19:14:14.175Z,15.10
2018-10-06T19:16:45.419Z,15.10
2018-10-06T19:19:16.135Z,15.10
2018-10-06T19:21:46.263Z,15.10
2018-10-06T19:24:16.851Z,15.20
2018-10-06T19:26:47.322Z,15.10
2018-10-06T19:29:19.331Z,15.10
2018-10-06T19:31:49.730Z,15.10
2018-10-06T19:34:19.979Z,15.10
2018-10-06T19:36:50.121Z,15.10
2018-10-06T19:39:20.134Z,15.10
2018-10-06T19:41:52.112Z,15.20
2018-10-06T19:44:22.722Z,15.20
2018-10-06T19:46:52.901Z,15.20
2018-10-06T19:49:23.361Z,15.20
2018-10-06T19:51:53.881Z,15.20
2018-10-06T19:54:24.029Z,15.20
2018-10-06T19:56:54.779Z,15.20
2018-10-06T19:59:25.232Z,15.20
2018-10-06T20:01:55.561Z,15.30
2018-10-06T20:04:26.027Z,15.20
2018-10-06T20:06:56.414Z,15.20
2018-10-06T20:09:26.591Z,15.10
2018-10-06T20:11:57.111Z,15.10
2018-10-06T20:14:27.785Z,15.20
2018-10-06T20:16:58.447Z,15.10
2018-10-06T20:19:29.080Z,15.10
2018-10-06T20:21:59.335Z,15.10
2018-10-06T20:24:29.878Z,15.10
2018-10-06T20:27:00.265Z,15.10
2018-10-06T20:29:30.589Z,15.10
2018-10-06T20:32:00.882Z,15.10
2018-10-06T20:34:31.166Z,15.10
2018-10-06T20:37:01.548Z,15.10
2018-10-06T20:39:34.481Z,15.10
2018-10-06T20:42:04.910Z,15.20
2018-10-06T20:44:35.044Z,15.20
2018-10-06T20:47:05.554Z,15.20
2018-10-06T20:49:35.924Z,15.20
2018-10-06T20:52:06.626Z,15.20
2018-10-06T20:54:37.449Z,15.20
2018-10-06T20:57:07.750Z,15.20
2018-10-06T20:59:37.839Z,15.20
2018-10-06T21:02:08.489Z,15.30
2018-10-06T21:04:39.345Z,15.20
2018-10-06T21:07:10.502Z,15.30
2018-10-06T21:09:41.354Z,15.30
2018-10-06T21:12:12.414Z,15.40
2018-10-06T21:14:42.709Z,15.40
2018-10-06T21:17:13.299Z,15.40
2018-10-06T21:19:44.272Z,15.40
2018-10-06T21:22:15.078Z,15.40
2018-10-06T21:24:45.449Z,15.40
2018-10-06T21:27:15.809Z,15.40
2018-10-06T21:29:46.431Z,15.40
2018-10-06T21:32:17.676Z,15.40
2018-10-06T21:34:47.869Z,15.40
2018-10-06T21:37:18.700Z,15.30
2018-10-06T21:39:48.862Z,15.30
2018-10-06T21:42:19.721Z,15.30
2018-10-06T21:44:49.939Z,15.30
2018-10-06T21:47:20.014Z,15.20
2018-10-06T21:49:50.585Z,15.20
2018-10-06T21:52:21.561Z,15.20
2018-10-06T21:54:51.574Z,15.20
2018-10-06T21:57:21.719Z,15.20
2018-10-06T21:59:52.510Z,15.20
2018-10-06T22:02:23.731Z,15.20
2018-10-06T22:04:54.293Z,15.20
2018-10-06T22:07:24.613Z,15.20
2018-10-06T22:09:55.252Z,15.10
2018-10-06T22:12:26.510Z,15.10
2018-10-06T22:14:57.289Z,15.10
2018-10-06T22:17:28.143Z,15.00
2018-10-06T22:19:58.423Z,15.00
2018-10-06T22:22:28.990Z,14.90
2018-10-06T22:24:59.282Z,14.90
2018-10-06T22:27:30.451Z,14.90
2018-10-06T22:30:01.498Z,14.80
2018-10-06T22:32:31.664Z,14.80
2018-10-06T22:35:02.652Z,14.70
2018-10-06T22:37:33.314Z,14.60
2018-10-06T22:40:03.260Z,14.50
2018-10-06T22:42:33.583Z,14.50
2018-10-06T22:45:04.369Z,14.50
2018-10-06T22:47:34.339Z,14.40
2018-10-06T22:50:05.358Z,14.40
2018-10-06T22:52:36.267Z,14.40
2018-10-06T22:55:07.233Z,14.30
2018-10-06T22:57:37.497Z,14.20
2018-10-06T23:00:07.797Z,14.20
2018-10-06T23:02:37.988Z,14.20
2018-10-06T23:05:08.909Z,14.10
2018-10-06T23:07:39.535Z,14.00
2018-10-06T23:10:10.245Z,13.90
2018-10-06T23:12:40.732Z,13.90
2018-10-06T23:15:11.195Z,13.80
2018-10-06T23:17:41.264Z,13.70
2018-10-06T23:20:12.138Z,13.70
2018-10-06T23:22:42.876Z,13.70
2018-10-06T23:25:13.234Z,13.70
2018-10-06T23:27:43.810Z,13.70
2018-10-06T23:30:15.088Z,13.60
2018-10-06T23:32:45.744Z,13.60
2018-10-06T23:35:17.495Z,13.60
2018-10-06T23:37:47.750Z,13.60
2018-10-06T23:40:18.182Z,13.50
2018-10-06T23:42:48.853Z,13.50
2018-10-06T23:45:19.726Z,13.50
2018-10-06T23:47:49.960Z,13.40
2018-10-06T23:50:20.275Z,13.40
2018-10-06T23:52:50.609Z,13.40
2018-10-06T23:55:21.518Z,13.40
2018-10-06T23:57:51.763Z,13.40
